Altus, OK

19:07 CDT le 21 septembre 2014 (GMT -0500)
Altus Municipal | Change Station
CLOSE
Current Station
Aéroport
Location: Altus,
Altitude: 1434 ft
Stations météo à proximité

Alt. 1434 ft 34.70 °N, 99.34 °W | Updated 12 minutes ago

Partiellement nuageux
Partiellement nuageux
82 ° F
Paraît 82 ° F
N
14
Vent Variable Vent de NNE

Aujourd'hui
Haut(e) -- | Bas -- ° F
--% Risque de précip.
Hier
Haut(e) -- | Bas -- ° F
Precip. -- pouce
7:24 AM 7:35 PM
Lune descendante, 5% visible
Pression 30.12 pouce
Visibilité 10.0 Miles terrestres
Nuages Ciel dégagé
indice de chaleur 82 ° F
Point de rosée 59 ° F
Humidité 45%
Précipitations 0.00 pouce
Profondeur de la couche neigeuse Non disponible.
UV 0 sur 12
Pollen 10.20 sur 12
Qualité de l'air Non disponible.
Flu Activity Non disponible.
METAR KAXS 212355Z AUTO 03012KT 10SM CLR 28/15 A3012 RMK AO2 T02800151 10347 20266

More Conditions Fewer Conditions

Pression 30.12 pouce
Visibilité 10.0 Miles terrestres
Nuages Ciel dégagé
indice de chaleur 82 ° F
Point de rosée 59 ° F
Humidité 45%
Précipitations 0.00 pouce
Profondeur de la couche neigeuse Non disponible.
UV 0 sur 12
Pollen 10.20 sur 12
Qualité de l'air Non disponible.
Flu Activity Non disponible.
METAR KAXS 212355Z AUTO 03012KT 10SM CLR 28/15 A3012 RMK AO2 T02800151 10347 20266

More Conditions Fewer Conditions

10-Day Weather Forecast

Almanac

Astronomie

Sep. 21, 2014 Lever Coucher
Temps réel 07:24 CDT 19:35 CDT
Crépuscule civil 06:59 CDT 20:00 CDT
Crépuscule nautique 06:30 CDT 20:30 CDT
Crépuscule astronomique 06:00 CDT 20:59 CDT
Lune 05:04 CDT (9/21) 18:08 CDT (9/21)
Durée de lumière visible 13h 01m
Longueur du jour
12h 10m
Tomorrow will be 2m 9s shorter.
Lune descendante, 5% of the Moon is Illuminated
Aujourd'hui
Lune descendante
Sep 24
Nouveau
Oct 1
Premier quartier
Oct 8
Pleine lune
Oct 15
Dernier quartier

Extrêmes aujourd'hui

State Highs State Lows

Community

WunderPhotos

Upload Photos

1,755,309 Photos téléchargées !

WunderBlogs® & News

Nearby

Épaisseur de neige

Station Depth Altitude
Pas de nouvelles chutes de neige

Activité sismique

Ville Distance Mag. Time & Date
Guthrie, Oklahoma 133 Miles terrestres 3.6 12:23 CDT
2014-09-19
Medford, Oklahoma 162 Miles terrestres 4.0 20:31 CDT
2014-09-18
Guthrie, Oklahoma 134 Miles terrestres 3.0 19:08 CDT
2014-09-18
Minimum magnitude displayed is 2.5.

Températures des eaux côtières

Lieu Température
Aucun rapport de station

Stations météo à proximité